createdAt,value
2018-06-19T00:01:15.837Z,101230.27
2018-06-19T00:03:44.315Z,101228.55
2018-06-19T00:06:12.928Z,101221.41
2018-06-19T00:08:41.880Z,101223.60
2018-06-19T00:11:11.334Z,101223.60
2018-06-19T00:13:40.033Z,101219.60
2018-06-19T00:16:08.684Z,101218.75
2018-06-19T00:18:41.875Z,101218.27
2018-06-19T00:21:14.021Z,101214.27
2018-06-19T00:23:42.780Z,101213.41
2018-06-19T00:26:12.202Z,101214.75
2018-06-19T00:28:44.712Z,101220.45
2018-06-19T00:31:13.519Z,101222.27
2018-06-19T00:33:41.990Z,101216.08
2018-06-19T00:36:10.502Z,101213.41
2018-06-19T00:38:39.153Z,101215.22
2018-06-19T00:41:07.616Z,101218.27
2018-06-19T00:43:36.533Z,101220.94
2018-06-19T00:46:06.571Z,101228.94
2018-06-19T00:48:35.252Z,101225.31
2018-06-19T00:51:03.759Z,101228.45
2018-06-19T00:53:33.209Z,101230.27
2018-06-19T00:56:13.162Z,101226.27
2018-06-19T00:58:42.872Z,101231.60
2018-06-19T01:01:11.629Z,101234.75
2018-06-19T01:03:40.112Z,101235.22
2018-06-19T01:06:08.833Z,101238.27
2018-06-19T01:08:38.095Z,101241.79
2018-06-19T01:11:06.614Z,101232.94
2018-06-19T01:13:36.378Z,101240.94
2018-06-19T01:16:05.158Z,101240.08
2018-06-19T01:18:33.693Z,101246.27
2018-06-19T01:21:02.821Z,101241.41
2018-06-19T01:23:31.426Z,101243.22
2018-06-19T01:25:59.867Z,101245.89
2018-06-19T01:28:29.270Z,101252.55
2018-06-19T01:30:57.795Z,101248.55
2018-06-19T01:33:26.261Z,101245.03
2018-06-19T01:35:54.960Z,101247.70
2018-06-19T01:38:23.547Z,101243.70
2018-06-19T01:40:52.106Z,101248.14
2018-06-19T01:43:21.326Z,101241.48
2018-06-19T01:45:50.452Z,101246.37
2018-06-19T01:48:19.070Z,101255.22
2018-06-19T01:50:48.341Z,101245.48
2018-06-19T01:53:16.771Z,101240.14
2018-06-19T01:55:45.196Z,101242.81
2018-06-19T01:58:13.733Z,101237.10
2018-06-19T02:00:46.325Z,101246.44
2018-06-19T02:03:14.914Z,101242.91
2018-06-19T02:05:43.429Z,101243.77
2018-06-19T02:08:11.955Z,101244.63
2018-06-19T02:10:40.460Z,101245.10
2018-06-19T02:13:09.840Z,101235.77
2018-06-19T02:15:38.340Z,101238.91
2018-06-19T02:18:07.603Z,101231.39
2018-06-19T02:20:36.079Z,101231.39
2018-06-19T02:23:04.702Z,101236.72
2018-06-19T02:25:33.524Z,101242.05
2018-06-19T02:28:02.661Z,101230.91
2018-06-19T02:30:36.036Z,101234.53
2018-06-19T02:33:04.459Z,101224.34
2018-06-19T02:35:32.999Z,101229.68
2018-06-19T02:38:01.514Z,101235.88
2018-06-19T02:40:30.148Z,101230.53
2018-06-19T02:42:59.452Z,101232.34
2018-06-19T02:45:28.249Z,101232.34
2018-06-19T02:47:57.395Z,101240.34
2018-06-19T02:50:26.460Z,101241.68
2018-06-19T02:52:55.008Z,101243.02
2018-06-19T02:55:23.667Z,101243.97
2018-06-19T02:57:52.137Z,101241.30
2018-06-19T03:00:21.675Z,101243.48
2018-06-19T03:02:51.578Z,101245.68
2018-06-19T03:05:20.997Z,101238.64
2018-06-19T03:07:49.462Z,101237.41
2018-06-19T03:10:18.345Z,101238.64
2018-06-19T03:12:47.450Z,101241.30
2018-06-19T03:15:16.033Z,101244.45
2018-06-19T03:17:44.571Z,101243.97
2018-06-19T03:20:13.053Z,101246.63
2018-06-19T03:22:41.560Z,101241.30
2018-06-19T03:25:10.378Z,101240.83
2018-06-19T03:27:38.851Z,101241.78
2018-06-19T03:30:09.345Z,101243.59
2018-06-19T03:32:37.892Z,101239.11
2018-06-19T03:35:06.407Z,101248.83
2018-06-19T03:37:35.942Z,101241.30
2018-06-19T03:40:04.421Z,101247.59
2018-06-19T03:42:32.950Z,101257.30
2018-06-19T03:45:01.887Z,101255.97
2018-06-19T03:47:30.357Z,101257.77
2018-06-19T03:50:00.624Z,101256.51
2018-06-19T03:52:29.197Z,101261.40
2018-06-19T03:54:57.649Z,101265.39
2018-06-19T03:57:26.101Z,101268.06
2018-06-19T03:59:55.190Z,101268.92
2018-06-19T04:02:23.983Z,101270.73
2018-06-19T04:04:52.571Z,101274.73
2018-06-19T04:07:21.556Z,101282.25
2018-06-19T04:09:49.961Z,101280.91
2018-06-19T04:12:20.057Z,101281.39
2018-06-19T04:14:48.785Z,101287.17
2018-06-19T04:17:21.545Z,101285.84
2018-06-19T04:19:50.317Z,101286.25
2018-06-19T04:22:18.934Z,101285.84
2018-06-19T04:24:47.505Z,101284.50
2018-06-19T04:27:15.977Z,101287.64
2018-06-19T04:29:44.422Z,101284.50
2018-06-19T04:32:12.989Z,101284.13
2018-06-19T04:34:41.484Z,101280.13
2018-06-19T04:37:09.962Z,101286.31
2018-06-19T04:39:38.441Z,101279.75
2018-06-19T04:42:07.694Z,101288.60
2018-06-19T04:44:36.288Z,101293.08
2018-06-19T04:47:04.753Z,101284.22
2018-06-19T04:49:33.271Z,101281.45
2018-06-19T04:52:02.749Z,101283.27
2018-06-19T04:54:31.292Z,101281.08
2018-06-19T04:57:00.098Z,101284.70
2018-06-19T04:59:29.153Z,101286.31
2018-06-19T05:01:57.602Z,101292.13
2018-06-19T05:04:26.300Z,101294.78
2018-06-19T05:06:55.065Z,101294.41
2018-06-19T05:09:23.481Z,101297.65
2018-06-19T05:11:51.926Z,101304.86
2018-06-19T05:14:20.552Z,101296.86
2018-06-19T05:16:48.968Z,101303.94
2018-06-19T05:19:19.444Z,101300.67
2018-06-19T05:21:48.169Z,101306.86
2018-06-19T05:24:16.759Z,101308.08
2018-06-19T05:26:45.317Z,101314.34
2018-06-19T05:29:15.599Z,101310.05
2018-06-19T05:31:44.053Z,101305.80
2018-06-19T05:34:12.712Z,101304.95
2018-06-19T05:36:41.248Z,101301.20
2018-06-19T05:39:11.626Z,101304.75
2018-06-19T05:41:40.344Z,101311.60
2018-06-19T05:44:10.013Z,101311.45
2018-06-19T05:46:38.850Z,101314.02
2018-06-19T05:49:07.894Z,101302.63
2018-06-19T05:51:36.393Z,101310.44
2018-06-19T05:54:05.025Z,101309.80
2018-06-19T05:56:33.672Z,101304.31
2018-06-19T05:59:02.111Z,101316.11
2018-06-19T06:01:30.550Z,101315.55
2018-06-19T06:03:59.332Z,101320.33
2018-06-19T06:06:29.171Z,101334.89
2018-06-19T06:08:57.706Z,101333.09
2018-06-19T06:11:26.417Z,101346.31
2018-06-19T06:13:55.007Z,101340.54
2018-06-19T06:16:23.624Z,101350.66
2018-06-19T06:18:52.067Z,101348.06
2018-06-19T06:21:21.014Z,101356.95
2018-06-19T06:23:49.548Z,101353.86
2018-06-19T06:26:18.062Z,101353.86
2018-06-19T06:28:47.006Z,101355.13
2018-06-19T06:31:15.538Z,101358.27
2018-06-19T06:33:44.857Z,101360.47
2018-06-19T06:36:13.420Z,101367.98
2018-06-19T06:38:42.775Z,101368.94
2018-06-19T06:41:11.232Z,101365.31
2018-06-19T06:43:39.883Z,101373.79
2018-06-19T06:46:08.390Z,101378.64
2018-06-19T06:48:37.042Z,101374.64
2018-06-19T06:51:06.053Z,101382.26
2018-06-19T06:53:34.606Z,101382.26
2018-06-19T06:56:03.649Z,101383.97
2018-06-19T06:58:32.117Z,101375.59
2018-06-19T07:01:00.559Z,101380.92
2018-06-19T07:03:29.300Z,101377.78
2018-06-19T07:05:57.764Z,101381.30
2018-06-19T07:08:26.322Z,101372.45
2018-06-19T07:10:54.824Z,101374.70
2018-06-19T07:13:23.638Z,101376.84
2018-06-19T07:15:52.279Z,101373.79
2018-06-19T07:18:20.753Z,101376.45
2018-06-19T07:20:49.499Z,101383.50
2018-06-19T07:23:18.010Z,101380.83
2018-06-19T07:25:46.584Z,101388.45
2018-06-19T07:28:15.031Z,101389.30
2018-06-19T07:30:43.503Z,101389.30
2018-06-19T07:33:12.630Z,101390.64
2018-06-19T07:35:41.700Z,101395.97
2018-06-19T07:38:10.702Z,101395.97
2018-06-19T07:40:39.077Z,101397.68
2018-06-19T07:43:08.027Z,101403.01
2018-06-19T07:45:36.645Z,101405.67
2018-06-19T07:48:05.101Z,101401.67
2018-06-19T07:50:33.591Z,101406.05
2018-06-19T07:53:02.084Z,101404.34
2018-06-19T07:55:30.689Z,101411.00
2018-06-19T07:57:59.214Z,101416.72
2018-06-19T08:00:35.511Z,101416.33
2018-06-19T08:03:03.917Z,101422.05
2018-06-19T08:05:32.952Z,101421.19
2018-06-19T08:08:02.270Z,101425.19
2018-06-19T08:10:30.737Z,101426.99
2018-06-19T08:13:00.432Z,101428.70
2018-06-19T08:15:29.016Z,101431.38
2018-06-19T08:17:58.079Z,101440.70
2018-06-19T08:20:28.433Z,101439.84
2018-06-19T08:22:57.100Z,101443.36
2018-06-19T08:25:27.271Z,101444.70
2018-06-19T08:27:55.941Z,101452.22
2018-06-19T08:30:29.559Z,101456.69
2018-06-19T08:32:58.165Z,101445.17
2018-06-19T08:35:26.787Z,101457.07
2018-06-19T08:37:55.312Z,101458.02
2018-06-19T08:40:23.907Z,101456.69
2018-06-19T08:42:52.713Z,101454.02
2018-06-19T08:45:21.789Z,101458.41
2018-06-19T08:47:50.238Z,101462.40
2018-06-19T08:50:18.902Z,101463.35
2018-06-19T08:52:47.425Z,101469.06
2018-06-19T08:55:16.163Z,101467.73
2018-06-19T08:57:44.594Z,101464.12
2018-06-19T09:00:13.317Z,101471.64
2018-06-19T09:02:41.843Z,101470.78
2018-06-19T09:05:10.469Z,101478.39
2018-06-19T09:07:38.978Z,101469.92
2018-06-19T09:10:07.480Z,101473.06
2018-06-19T09:12:35.964Z,101475.25
2018-06-19T09:15:04.500Z,101481.44
2018-06-19T09:17:32.935Z,101482.30
2018-06-19T09:20:02.182Z,101481.44
2018-06-19T09:22:31.699Z,101478.77
2018-06-19T09:25:00.156Z,101480.52
2018-06-19T09:27:28.780Z,101480.52
2018-06-19T09:29:57.705Z,101480.97
2018-06-19T09:32:27.069Z,101485.44
2018-06-19T09:34:55.767Z,101484.52
2018-06-19T09:37:24.295Z,101484.52
2018-06-19T09:39:52.803Z,101487.19
2018-06-19T09:42:21.347Z,101492.52
2018-06-19T09:44:50.773Z,101492.52
2018-06-19T09:47:19.358Z,101491.19
2018-06-19T09:49:47.809Z,101492.90
2018-06-19T09:52:16.442Z,101498.23
2018-06-19T09:54:45.050Z,101497.84
2018-06-19T09:57:14.329Z,101491.56
2018-06-19T09:59:43.335Z,101495.18
2018-06-19T10:02:12.258Z,101498.23
2018-06-19T10:04:40.730Z,101501.28
2018-06-19T10:07:09.309Z,101495.09
2018-06-19T10:09:37.796Z,101499.09
2018-06-19T10:12:06.335Z,101499.95
2018-06-19T10:14:34.781Z,101501.28
2018-06-19T10:17:03.308Z,101498.61
2018-06-19T10:19:32.668Z,101500.42
2018-06-19T10:22:01.130Z,101511.47
2018-06-19T10:24:29.901Z,101507.94
2018-06-19T10:26:59.036Z,101508.80
2018-06-19T10:29:27.510Z,101511.84
2018-06-19T10:31:56.189Z,101510.89
2018-06-19T10:34:24.712Z,101504.33
2018-06-19T10:36:53.467Z,101504.70
2018-06-19T10:39:21.915Z,101505.56
2018-06-19T10:41:50.493Z,101505.09
2018-06-19T10:44:19.112Z,101510.42
2018-06-19T10:46:47.960Z,101507.75
2018-06-19T10:49:16.391Z,101506.42
2018-06-19T10:51:44.893Z,101506.81
2018-06-19T10:54:13.357Z,101505.03
2018-06-19T10:56:42.434Z,101513.03
2018-06-19T10:59:11.458Z,101517.88
2018-06-19T11:01:39.934Z,101512.55
2018-06-19T11:04:08.410Z,101514.80
2018-06-19T11:06:38.473Z,101517.41
2018-06-19T11:09:08.794Z,101518.65
2018-06-19T11:11:38.312Z,101515.98
2018-06-19T11:14:06.851Z,101518.56
2018-06-19T11:16:35.529Z,101513.31
2018-06-19T11:19:04.189Z,101508.37
2018-06-19T11:21:32.631Z,101507.03
2018-06-19T11:24:01.536Z,101512.75
2018-06-19T11:26:30.073Z,101516.75
2018-06-19T11:28:58.657Z,101514.47
2018-06-19T11:31:27.226Z,101512.22
2018-06-19T11:33:57.063Z,101516.22
2018-06-19T11:36:25.535Z,101509.94
2018-06-19T11:38:54.114Z,101507.65
2018-06-19T11:41:23.103Z,101518.22
2018-06-19T11:43:51.801Z,101513.75
2018-06-19T11:46:20.487Z,101514.13
2018-06-19T11:48:49.050Z,101510.55
2018-06-19T11:51:17.616Z,101520.27
2018-06-19T11:53:46.089Z,101510.92
2018-06-19T11:56:14.765Z,101511.31
2018-06-19T11:58:43.325Z,101513.02
2018-06-19T12:01:11.871Z,101513.02
2018-06-19T12:03:40.294Z,101513.02
2018-06-19T12:06:08.845Z,101513.41
2018-06-19T12:08:37.368Z,101507.13
2018-06-19T12:11:05.920Z,101506.69
2018-06-19T12:13:34.527Z,101509.25
2018-06-19T12:16:03.090Z,101510.59
2018-06-19T12:18:31.808Z,101512.78
2018-06-19T12:21:00.240Z,101512.30
2018-06-19T12:23:28.715Z,101515.35
2018-06-19T12:25:57.315Z,101516.20
2018-06-19T12:28:26.193Z,101513.55
2018-06-19T12:30:54.851Z,101514.78
2018-06-19T12:33:23.849Z,101513.92
2018-06-19T12:35:52.357Z,101519.73
2018-06-19T12:38:20.886Z,101518.78
2018-06-19T12:40:49.474Z,101519.20
2018-06-19T12:43:18.013Z,101521.86
2018-06-19T12:45:46.513Z,101516.12
2018-06-19T12:48:15.075Z,101514.34
2018-06-19T12:51:57.865Z,101509.86
2018-06-19T12:55:37.211Z,101519.20
2018-06-19T12:58:05.749Z,101515.26
2018-06-19T13:00:34.289Z,101516.20
2018-06-19T13:03:14.088Z,101519.26
2018-06-19T13:05:53.661Z,101513.45
2018-06-19T13:08:23.109Z,101513.92
2018-06-19T13:10:52.293Z,101517.45
2018-06-19T13:14:36.977Z,101516.53
2018-06-19T13:17:16.578Z,101518.25
2018-06-19T13:19:56.494Z,101517.86
2018-06-19T13:22:24.945Z,101512.53
2018-06-19T13:24:53.673Z,101516.44
2018-06-19T13:27:22.154Z,101514.25
2018-06-19T13:30:03.193Z,101503.01
2018-06-19T13:32:33.341Z,101502.06
2018-06-19T13:35:01.801Z,101497.05
2018-06-19T13:37:31.058Z,101498.85
2018-06-19T13:41:15.821Z,101497.52
2018-06-19T13:43:56.111Z,101504.19
2018-06-19T13:46:24.803Z,101506.00
2018-06-19T13:48:53.376Z,101512.19
2018-06-19T13:51:22.671Z,101511.77
2018-06-19T13:53:51.165Z,101512.19
2018-06-19T13:57:35.831Z,101499.77
2018-06-19T14:00:08.622Z,101508.19
2018-06-19T14:02:37.104Z,101505.52
2018-06-19T14:05:06.215Z,101508.19
2018-06-19T14:07:40.324Z,101510.86
2018-06-19T14:10:24.794Z,101504.57
2018-06-19T14:12:57.390Z,101513.52
2018-06-19T14:15:26.470Z,101502.00
2018-06-19T14:17:55.023Z,101505.91
2018-06-19T14:20:23.793Z,101497.42
2018-06-19T14:22:52.302Z,101500.95
2018-06-19T14:25:21.997Z,101494.19
2018-06-19T14:27:50.789Z,101503.05
2018-06-19T14:30:21.315Z,101507.91
2018-06-19T14:32:50.098Z,101503.62
2018-06-19T14:35:18.872Z,101501.81
2018-06-19T14:37:47.397Z,101501.81
2018-06-19T14:40:16.956Z,101504.47
2018-06-19T14:42:45.413Z,101501.72
2018-06-19T14:45:14.031Z,101503.05
2018-06-19T14:47:43.621Z,101496.77
2018-06-19T14:50:13.380Z,101496.77
2018-06-19T14:52:41.859Z,101502.09
2018-06-19T14:55:11.454Z,101505.23
2018-06-19T14:57:40.875Z,101504.37
2018-06-19T15:00:10.628Z,101502.19
2018-06-19T15:02:39.479Z,101498.03
2018-06-19T15:05:08.469Z,101504.22
2018-06-19T15:07:47.316Z,101505.94
2018-06-19T15:10:16.317Z,101502.32
2018-06-19T15:12:44.834Z,101503.66
2018-06-19T15:15:13.381Z,101503.08
2018-06-19T15:17:42.256Z,101506.61
2018-06-19T15:20:11.667Z,101500.35
2018-06-19T15:22:40.209Z,101496.73
2018-06-19T15:25:09.801Z,101497.20
2018-06-19T15:27:38.456Z,101491.78
2018-06-19T15:30:07.494Z,101492.16
2018-06-19T15:32:36.792Z,101495.30
2018-06-19T15:35:05.310Z,101493.97
2018-06-19T15:37:33.982Z,101499.20
2018-06-19T15:40:03.095Z,101497.02
2018-06-19T15:42:32.157Z,101499.20
2018-06-19T15:45:00.727Z,101493.88
2018-06-19T15:47:29.720Z,101490.35
2018-06-19T15:49:58.857Z,101487.20
2018-06-19T15:52:28.122Z,101488.06
2018-06-19T15:54:56.664Z,101488.92
2018-06-19T15:57:25.290Z,101489.97
2018-06-19T15:59:53.794Z,101497.02
2018-06-19T16:02:22.336Z,101488.83
2018-06-19T16:04:51.032Z,101492.89
2018-06-19T16:07:21.376Z,101497.08
2018-06-19T16:09:49.981Z,101494.09
2018-06-19T16:12:21.877Z,101498.09
2018-06-19T16:14:50.630Z,101497.71
2018-06-19T16:17:19.170Z,101497.71
2018-06-19T16:19:47.715Z,101500.86
2018-06-19T16:22:16.247Z,101499.23
2018-06-19T16:24:44.689Z,101499.23
2018-06-19T16:27:13.121Z,101499.23
2018-06-19T16:29:41.572Z,101499.58
2018-06-19T16:32:10.110Z,101500.53
2018-06-19T16:34:39.528Z,101500.53
2018-06-19T16:37:08.075Z,101502.72
2018-06-19T16:39:36.542Z,101501.77
2018-06-19T16:42:05.067Z,101493.39
2018-06-19T16:44:34.334Z,101502.78
2018-06-19T16:47:02.767Z,101503.58
2018-06-19T16:49:31.565Z,101500.91
2018-06-19T16:52:00.132Z,101500.34
2018-06-19T16:54:28.706Z,101497.20
2018-06-19T16:56:58.050Z,101502.28
2018-06-19T16:59:26.489Z,101500.86
2018-06-19T17:01:54.989Z,101499.05
2018-06-19T17:04:23.440Z,101501.17
2018-06-19T17:06:52.322Z,101497.94
2018-06-19T17:09:20.786Z,101498.89
2018-06-19T17:11:49.325Z,101505.94
2018-06-19T17:14:21.682Z,101497.84
2018-06-19T17:16:50.373Z,101497.37
2018-06-19T17:19:19.741Z,101495.08
2018-06-19T17:21:48.293Z,101498.55
2018-06-19T17:24:16.765Z,101498.92
2018-06-19T17:26:45.312Z,101499.30
2018-06-19T17:29:13.834Z,101498.55
2018-06-19T17:31:42.987Z,101497.84
2018-06-19T17:34:11.909Z,101501.94
2018-06-19T17:36:40.381Z,101500.22
2018-06-19T17:39:10.967Z,101498.03
2018-06-19T17:41:40.341Z,101496.86
2018-06-19T17:44:08.964Z,101496.00
2018-06-19T17:46:38.462Z,101496.38
2018-06-19T17:49:06.993Z,101495.71
2018-06-19T17:51:35.510Z,101493.42
2018-06-19T17:54:03.966Z,101500.95
2018-06-19T17:56:32.435Z,101498.28
2018-06-19T17:59:00.890Z,101502.53
2018-06-19T18:01:29.434Z,101498.25
2018-06-19T18:03:57.876Z,101508.44
2018-06-19T18:06:26.429Z,101510.63
2018-06-19T18:08:54.933Z,101508.06
2018-06-19T18:11:23.924Z,101510.40
2018-06-19T18:13:52.474Z,101510.40
2018-06-19T18:16:21.001Z,101502.88
2018-06-19T18:18:49.473Z,101507.35
2018-06-19T18:21:17.939Z,101501.92
2018-06-19T18:23:46.903Z,101499.73
2018-06-19T18:26:15.608Z,101511.73
2018-06-19T18:28:44.125Z,101508.59
2018-06-19T18:31:12.567Z,101505.45
2018-06-19T18:33:41.017Z,101516.69
2018-06-19T18:36:09.467Z,101513.86
2018-06-19T18:38:38.133Z,101509.07
2018-06-19T18:41:06.813Z,101510.97
2018-06-19T18:43:35.854Z,101513.55
2018-06-19T18:46:04.461Z,101506.11
2018-06-19T18:48:33.026Z,101507.45
2018-06-19T18:51:01.765Z,101504.30
2018-06-19T18:53:30.213Z,101500.45
2018-06-19T18:55:58.671Z,101502.69
2018-06-19T18:58:27.331Z,101503.55
2018-06-19T19:00:55.825Z,101505.73
2018-06-19T19:03:24.256Z,101511.92
2018-06-19T19:05:52.791Z,101513.25
2018-06-19T19:08:23.447Z,101511.70
2018-06-19T19:10:54.701Z,101511.60
2018-06-19T19:13:24.740Z,101512.64
2018-06-19T19:15:58.500Z,101511.31
2018-06-19T19:18:32.337Z,101509.98
2018-06-19T19:21:01.424Z,101510.07
2018-06-19T19:23:30.276Z,101517.97
2018-06-19T19:25:58.889Z,101513.69
2018-06-19T19:28:32.862Z,101519.08
2018-06-19T19:31:01.360Z,101513.69
2018-06-19T19:33:29.816Z,101517.21
2018-06-19T19:35:58.477Z,101518.06
2018-06-19T19:38:32.303Z,101518.13
2018-06-19T19:41:01.112Z,101521.27
2018-06-19T19:43:29.621Z,101521.07
2018-06-19T19:45:58.893Z,101521.50
2018-06-19T19:48:34.833Z,101517.45
2018-06-19T19:51:03.263Z,101518.88
2018-06-19T19:53:31.706Z,101528.27
2018-06-19T19:57:08.427Z,101523.03
2018-06-19T19:59:36.966Z,101535.98
2018-06-19T20:02:05.560Z,101535.50
2018-06-19T20:04:34.044Z,101525.88
2018-06-19T20:07:03.339Z,101535.27
2018-06-19T20:09:31.983Z,101534.03
2018-06-19T20:12:00.504Z,101538.59
2018-06-19T20:14:28.972Z,101533.73
2018-06-19T20:16:57.992Z,101536.49
2018-06-19T20:19:26.563Z,101540.07
2018-06-19T20:21:54.977Z,101537.35
2018-06-19T20:24:24.158Z,101540.48
2018-06-19T20:26:53.025Z,101545.02
2018-06-19T20:29:21.632Z,101547.69
2018-06-19T20:31:50.094Z,101546.83
2018-06-19T20:34:18.623Z,101548.72
2018-06-19T20:36:47.869Z,101553.20
2018-06-19T20:39:16.428Z,101556.39
2018-06-19T20:41:44.868Z,101557.25
2018-06-19T20:44:13.479Z,101548.84
2018-06-19T20:46:42.145Z,101550.64
2018-06-19T20:49:10.677Z,101557.40
2018-06-19T20:51:39.153Z,101557.48
2018-06-19T20:54:07.694Z,101556.30
2018-06-19T20:56:36.764Z,101555.53
2018-06-19T20:59:05.290Z,101560.48
2018-06-19T21:01:33.809Z,101555.86
2018-06-19T21:04:02.276Z,101563.38
2018-06-19T21:06:30.771Z,101556.63
2018-06-19T21:08:59.297Z,101555.30
2018-06-19T21:11:27.724Z,101553.58
2018-06-19T21:13:56.227Z,101551.95
2018-06-19T21:16:25.149Z,101558.66
2018-06-19T21:18:53.656Z,101555.23
2018-06-19T21:21:22.973Z,101554.38
2018-06-19T21:23:51.425Z,101550.94
2018-06-19T21:26:20.274Z,101550.55
2018-06-19T21:28:49.292Z,101553.75
2018-06-19T21:31:17.856Z,101552.95
2018-06-19T21:33:46.348Z,101552.16
2018-06-19T21:36:14.839Z,101548.81
2018-06-19T21:38:43.394Z,101553.02
2018-06-19T21:41:11.836Z,101556.86
2018-06-19T21:43:40.392Z,101553.63
2018-06-19T21:46:08.838Z,101553.07
2018-06-19T21:48:37.352Z,101559.58
2018-06-19T21:51:05.805Z,101557.30
2018-06-19T21:53:34.336Z,101560.26
2018-06-19T21:56:03.403Z,101561.12
2018-06-19T21:58:31.845Z,101553.13
2018-06-19T22:01:00.575Z,101548.59
2018-06-19T22:03:29.532Z,101551.16
2018-06-19T22:05:57.952Z,101547.55
2018-06-19T22:08:33.539Z,101548.41
2018-06-19T22:11:02.061Z,101546.59
2018-06-19T22:13:30.494Z,101543.93
2018-06-19T22:15:59.005Z,101548.79
2018-06-19T22:18:27.436Z,101550.06
2018-06-19T22:20:55.922Z,101542.92
2018-06-19T22:23:24.521Z,101542.92
2018-06-19T22:25:53.240Z,101540.64
2018-06-19T22:28:22.362Z,101541.50
2018-06-19T22:30:51.264Z,101541.41
2018-06-19T22:33:20.045Z,101540.92
2018-06-19T22:35:48.582Z,101545.78
2018-06-19T22:38:17.081Z,101544.92
2018-06-19T22:40:45.517Z,101539.13
2018-06-19T22:43:13.959Z,101538.67
2018-06-19T22:45:42.468Z,101547.06
2018-06-19T22:48:10.883Z,101538.20
2018-06-19T22:50:39.501Z,101543.92
2018-06-19T22:53:08.014Z,101543.92
2018-06-19T22:55:36.530Z,101543.92
2018-06-19T22:58:05.098Z,101546.11
2018-06-19T23:00:33.529Z,101550.48
2018-06-19T23:03:05.029Z,101544.30
2018-06-19T23:05:34.806Z,101542.97
2018-06-19T23:08:03.215Z,101543.34
2018-06-19T23:10:31.713Z,101543.34
2018-06-19T23:13:01.514Z,101544.20
2018-06-19T23:15:30.046Z,101539.34
2018-06-19T23:17:59.312Z,101539.26
2018-06-19T23:20:27.754Z,101539.26
2018-06-19T23:22:56.189Z,101540.12
2018-06-19T23:25:25.243Z,101540.59
2018-06-19T23:27:53.802Z,101537.45
2018-06-19T23:30:27.477Z,101534.40
2018-06-19T23:32:56.051Z,101533.45
2018-06-19T23:35:24.784Z,101534.34
2018-06-19T23:37:53.193Z,101538.34
2018-06-19T23:40:21.625Z,101537.86
2018-06-19T23:42:50.091Z,101531.58
2018-06-19T23:45:18.672Z,101532.53
2018-06-19T23:47:47.192Z,101534.72
2018-06-19T23:50:18.037Z,101532.05
2018-06-19T23:52:46.554Z,101531.20
2018-06-19T23:55:15.403Z,101525.39
2018-06-19T23:57:43.892Z,101525.39
